Butts AAF (Fort Carson) Air Field
KFCS : now visible

Airfield :











YOU CAN JOIN US ON...

 
LOGIN :

Register | Disclaimer

   EN    FR    IT 

 









Legend :    VFR   Marginal VFR   IFR   Intensive IFR   Very Intensive IFR
Visi :
Ceiling :
>= 8 km
>= 3000ft
5 to 8 km
1000 to 3000 ft
1500m to 5 km
500 to 1000 ft
800 to 1500m
200 to 500 ft
< 800m
< 200 ft
Symbols :   Thunderstorms  Fog  Heavy snow  Heavy precipitations  Wind > 20 kt







- Airport Elevation : 5838 ft


KFCS - Butts AAF (Fort Carson) Air Field

CURRENT METAR :
  • 191228Z AUTO 21012KT 10SM SCT015 04/02 A2997 RMK AO2 SLP155 $

EXPIRED METARs :
  • 191158Z AUTO 22007KT 10SM BKN015 OVC020 04/02 A2997 RMK AO2 CIG 015V019 SLP150 70004 T00420019 10049 20012 52013 $
  • 191058Z AUTO 24005KT 9SM OVC019 04/01 A2996 RMK AO2 SLP152 T00430008 $
  • 191043Z AUTO 22004KT 8SM BKN018 OVC024 04/00 A2995 RMK AO2 SLP148 $
  • 191028Z AUTO 23004KT 10SM BKN022 04/00 A2995 RMK AO2 SLP148 $
  • 190958Z AUTO 23004KT 10SM CLR 04/M01 A2995 RMK AO2 SLP148 T00441012 $

TAF TAF KFCS
Valid from the 19 at 05:00 until the 20 at 11:00 UTC


190505Z 1905/2011 VRB06KT 9999 FEW200 QNH2988INS
BECMG 1914/1915 17012KT 9999 SCT130 QNH2989INS
BECMG 1920/1921 18012G18KT 9999 SCT040 BKN060 QNH2980INS
TEMPO 1921/2001 18015G25KT VCSH
BECMG 2001/2002 15009KT 9999 FEW100 SCT120 BKN150 QNH2980INS
BECMG 2005/2006 VRB06KT 9999 SCT180 QNH2979INS TX15/1923Z TN02/1911Z
KZDV FIR / North America



MET'MAP, your aeronautical weather chart ! - Copyright ORBIFLY December 2007 - Disclaimer

ORBIFLY MET'MAP TEAM :

Programming & Development : Alexandra Zaïnal
Concept & Development : Baudouin d'Aumeries
Co-Development & Prog : Marc-Olivier Méhu
Technical & hardware support : Manuel Goepfert

Contact : metmap@orbifly.com




SOURCES & CREDITS :

   NOAA       Earth
Advisory